Franklin, PA

3:29 AM EDT on April 27, 2015 (GMT -0400)
Franklin | | Change Station
CLOSE
Current Station
Personal Weather Station
Location: Franklin, PA
Elevation: 1020 ft
Nearby Weather Stations

Elev 1020 ft 41.40 °N, 79.83 °W | Updated 7 seconds ago

Overcast
Overcast
41.2 °F
Feels Like 41 °F
N
1.6
Wind Variable Wind from West
Gusts 2.2 mph

Today
High -- | Low -- °F
--% Chance of Precip.
Yesterday
High -- | Low -- °F
Precip. -- in
6:22 AM 8:12 PM
Waxing Gibbous, 62% visible
Pressure 29.82 in
Visibility 10.0 miles
Clouds Overcast 3900 ft
Windchill 41 °F
Dew Point 35 °F
Humidity 78%
Rainfall 0.00 in
Snow Depth Not available.
UV 0 out of 12
Pollen 10.00 out of 12
Air Quality Not available.
Flu Activity Sporadic
METAR KFKL 270715Z AUTO 32004KT 10SM OVC039 03/M02 A2982 RMK AO1

More Conditions Fewer Conditions

Pressure 29.82 in
Visibility 10.0 miles
Clouds Overcast 3900 ft
Windchill 41 °F
Dew Point 35 °F
Humidity 78%
Rainfall 0.00 in
Snow Depth Not available.
UV 0 out of 12
Pollen 10.00 out of 12
Air Quality Not available.
Flu Activity Sporadic
METAR KFKL 270715Z AUTO 32004KT 10SM OVC039 03/M02 A2982 RMK AO1

More Conditions Fewer Conditions

10-Day Weather Forecast

Almanac

Astronomy

Apr. 27, 2015 Rise Set
Actual Time
Civil Twilight
Nautical Twilight
Astronomical Twilight
Moon
Length of Visible Light
Length of Day
Tomorrow will be .
, % of the Moon is Illuminated

Today's Extremes

State Highs State Lows

Community

WunderPhotos

Upload Photos

1,817,276 photos uploaded!

WunderBlogs® & News

Nearby

Air Quality

  Air Quality AQ Index Pollutant
Not available.

Snow Depth

Station Depth Elevation

Earthquake Activity

City Distance Mag. Time & Date
Minimum magnitude displayed is 2.5.

Coastal Water Temperatures

Place Temperature

Stations

Nearby Weather Stations

Station Location Temp. Windchill Dew Point Humidity Wind Precip. Elev Updated Type